HSYE weather

Yei Airport
Yei, Central Equatoria State, South Sudan

Public forecast

Using degrees Celsius for public forecast. Weather courtesy of forecast.io.

Closest aviation weather report (METAR) to Yei Airport

Report is more than 6 hours old.

Closest report is Arua Airport, 65.8 nm (121.9 km) S. Retrieved 2013/09/02 12:00 UTC (6 years ago):

HUAR 021200Z 27004KT 9999 BKN020 FEW023CB SCT300 27/18

Closest aviation forecast (TAF) to Yei Airport

Forecast is more than 12 hours old.

Closest forecast is Juba International Airport, 68.7 nm (127.2 km) NE. Retrieved 2019/10/19 12:33 UTC (19 hours ago):

TAF TAF HSSJ 191000Z 1912/2018 27004KT 9999 SCT045 BKN090 BECMG 1918/1921 12005G15KT 6000 TSRA FEW040CB BKN090 PROB30 TEMPO 2000/2006 08505KT 4000 RA BKN040 BKN090